sensor_id;sensor_type;location;lat;lon;timestamp;temperature;humidity
16267;DHT22;8241;48.786;9.250;2022-09-09T00:01:28;17.20;99.90
16267;DHT22;8241;48.786;9.250;2022-09-09T00:03:59;17.20;99.90
16267;DHT22;8241;48.786;9.250;2022-09-09T00:06:28;17.20;99.90
16267;DHT22;8241;48.786;9.250;2022-09-09T00:09:00;17.30;99.90
16267;DHT22;8241;48.786;9.250;2022-09-09T00:11:28;17.30;99.90
16267;DHT22;8241;48.786;9.250;2022-09-09T00:13:56;17.40;99.90
16267;DHT22;8241;48.786;9.250;2022-09-09T00:16:25;17.40;99.90
16267;DHT22;8241;48.786;9.250;2022-09-09T00:18:55;17.40;99.90
16267;DHT22;8241;48.786;9.250;2022-09-09T00:21:29;17.40;99.90
16267;DHT22;8241;48.786;9.250;2022-09-09T00:23:58;17.30;99.90
16267;DHT22;8241;48.786;9.250;2022-09-09T00:26:30;17.30;99.90
16267;DHT22;8241;48.786;9.250;2022-09-09T00:29:14;17.30;99.90
16267;DHT22;8241;48.786;9.250;2022-09-09T00:31:44;17.30;99.90
16267;DHT22;8241;48.786;9.250;2022-09-09T00:37:42;17.50;99.90
16267;DHT22;8241;48.786;9.250;2022-09-09T00:40:13;17.60;99.90
16267;DHT22;8241;48.786;9.250;2022-09-09T00:42:43;17.70;99.90
16267;DHT22;8241;48.786;9.250;2022-09-09T00:45:16;17.60;99.90
16267;DHT22;8241;48.786;9.250;2022-09-09T00:50:35;17.40;99.90
16267;DHT22;8241;48.786;9.250;2022-09-09T00:53:19;17.40;99.90
16267;DHT22;8241;48.786;9.250;2022-09-09T00:55:49;17.30;99.90
16267;DHT22;8241;48.786;9.250;2022-09-09T01:01:26;17.20;99.90
16267;DHT22;8241;48.786;9.250;2022-09-09T01:03:55;17.20;99.90
16267;DHT22;8241;48.786;9.250;2022-09-09T01:06:26;17.20;99.90
16267;DHT22;8241;48.786;9.250;2022-09-09T01:09:02;17.10;99.90
16267;DHT22;8241;48.786;9.250;2022-09-09T01:11:32;17.00;99.90
16267;DHT22;8241;48.786;9.250;2022-09-09T01:14:11;17.00;99.90
16267;DHT22;8241;48.786;9.250;2022-09-09T01:16:42;17.00;99.90
16267;DHT22;8241;48.786;9.250;2022-09-09T01:19:09;17.00;99.90
16267;DHT22;8241;48.786;9.250;2022-09-09T01:21:41;17.10;99.90
16267;DHT22;8241;48.786;9.250;2022-09-09T01:24:22;17.30;99.60
16267;DHT22;8241;48.786;9.250;2022-09-09T01:30:07;17.40;99.50
16267;DHT22;8241;48.786;9.250;2022-09-09T01:35:39;17.40;99.90
16267;DHT22;8241;48.786;9.250;2022-09-09T01:38:09;17.30;99.90
16267;DHT22;8241;48.786;9.250;2022-09-09T01:40:36;17.30;99.90
16267;DHT22;8241;48.786;9.250;2022-09-09T01:43:03;17.20;99.90
16267;DHT22;8241;48.786;9.250;2022-09-09T01:45:31;17.20;99.80
16267;DHT22;8241;48.786;9.250;2022-09-09T01:47:58;17.30;99.50
16267;DHT22;8241;48.786;9.250;2022-09-09T01:50:56;17.20;99.40
16267;DHT22;8241;48.786;9.250;2022-09-09T01:53:23;17.20;99.40
16267;DHT22;8241;48.786;9.250;2022-09-09T01:55:54;17.20;99.00
16267;DHT22;8241;48.786;9.250;2022-09-09T01:58:24;17.30;98.70
16267;DHT22;8241;48.786;9.250;2022-09-09T02:01:01;17.40;98.40
16267;DHT22;8241;48.786;9.250;2022-09-09T02:03:38;17.40;98.40
16267;DHT22;8241;48.786;9.250;2022-09-09T02:06:19;17.40;98.90
16267;DHT22;8241;48.786;9.250;2022-09-09T02:08:49;17.40;99.30
16267;DHT22;8241;48.786;9.250;2022-09-09T02:11:24;17.30;99.60
16267;DHT22;8241;48.786;9.250;2022-09-09T02:16:56;17.10;99.90
16267;DHT22;8241;48.786;9.250;2022-09-09T02:19:34;17.00;99.90
16267;DHT22;8241;48.786;9.250;2022-09-09T02:25:09;16.90;99.80
16267;DHT22;8241;48.786;9.250;2022-09-09T02:27:37;17.00;99.60
16267;DHT22;8241;48.786;9.250;2022-09-09T02:30:06;17.10;99.20
16267;DHT22;8241;48.786;9.250;2022-09-09T02:32:39;17.10;99.30
16267;DHT22;8241;48.786;9.250;2022-09-09T02:37:53;17.20;98.90
16267;DHT22;8241;48.786;9.250;2022-09-09T02:40:22;17.20;98.90
16267;DHT22;8241;48.786;9.250;2022-09-09T02:42:56;17.30;98.80
16267;DHT22;8241;48.786;9.250;2022-09-09T02:45:27;17.30;98.90
16267;DHT22;8241;48.786;9.250;2022-09-09T02:47:58;17.30;98.80
16267;DHT22;8241;48.786;9.250;2022-09-09T02:50:29;17.20;98.70
16267;DHT22;8241;48.786;9.250;2022-09-09T02:55:47;17.20;98.70
16267;DHT22;8241;48.786;9.250;2022-09-09T02:58:18;17.10;98.70
16267;DHT22;8241;48.786;9.250;2022-09-09T03:03:28;17.30;99.10
16267;DHT22;8241;48.786;9.250;2022-09-09T03:05:56;17.30;99.10
16267;DHT22;8241;48.786;9.250;2022-09-09T03:08:25;17.30;98.90
16267;DHT22;8241;48.786;9.250;2022-09-09T03:10:53;17.20;99.20
16267;DHT22;8241;48.786;9.250;2022-09-09T03:13:20;17.00;99.60
16267;DHT22;8241;48.786;9.250;2022-09-09T03:15:48;16.90;99.90
16267;DHT22;8241;48.786;9.250;2022-09-09T03:18:18;16.80;99.90
16267;DHT22;8241;48.786;9.250;2022-09-09T03:20:50;16.80;99.90
16267;DHT22;8241;48.786;9.250;2022-09-09T03:23:19;16.70;99.90
16267;DHT22;8241;48.786;9.250;2022-09-09T03:28:39;16.50;99.90
16267;DHT22;8241;48.786;9.250;2022-09-09T03:31:06;16.40;99.90
16267;DHT22;8241;48.786;9.250;2022-09-09T03:33:39;16.30;99.90
16267;DHT22;8241;48.786;9.250;2022-09-09T03:36:18;16.30;99.90
16267;DHT22;8241;48.786;9.250;2022-09-09T03:38:45;16.30;99.90
16267;DHT22;8241;48.786;9.250;2022-09-09T03:41:15;16.30;99.90
16267;DHT22;8241;48.786;9.250;2022-09-09T03:43:47;16.30;99.90
16267;DHT22;8241;48.786;9.250;2022-09-09T03:46:14;16.30;99.90
16267;DHT22;8241;48.786;9.250;2022-09-09T03:48:41;16.30;99.90
16267;DHT22;8241;48.786;9.250;2022-09-09T03:51:09;16.40;99.90
16267;DHT22;8241;48.786;9.250;2022-09-09T03:53:37;16.40;99.90
16267;DHT22;8241;48.786;9.250;2022-09-09T03:58:52;16.40;99.90
16267;DHT22;8241;48.786;9.250;2022-09-09T04:01:19;16.50;99.90
16267;DHT22;8241;48.786;9.250;2022-09-09T04:03:54;16.50;99.90
16267;DHT22;8241;48.786;9.250;2022-09-09T04:06:23;16.50;99.90
16267;DHT22;8241;48.786;9.250;2022-09-09T04:08:51;16.50;99.90
16267;DHT22;8241;48.786;9.250;2022-09-09T04:14:16;16.60;99.90
16267;DHT22;8241;48.786;9.250;2022-09-09T04:16:43;16.60;99.90
16267;DHT22;8241;48.786;9.250;2022-09-09T04:19:11;16.60;99.90
16267;DHT22;8241;48.786;9.250;2022-09-09T04:21:41;16.60;99.90
16267;DHT22;8241;48.786;9.250;2022-09-09T04:24:09;16.60;99.90
16267;DHT22;8241;48.786;9.250;2022-09-09T04:26:54;16.50;99.90
16267;DHT22;8241;48.786;9.250;2022-09-09T04:29:35;16.40;99.90
16267;DHT22;8241;48.786;9.250;2022-09-09T04:32:05;16.40;99.90
16267;DHT22;8241;48.786;9.250;2022-09-09T04:34:37;16.50;99.90
16267;DHT22;8241;48.786;9.250;2022-09-09T04:37:06;16.50;99.90
16267;DHT22;8241;48.786;9.250;2022-09-09T04:39:49;16.50;99.90
16267;DHT22;8241;48.786;9.250;2022-09-09T04:42:24;16.40;99.90
16267;DHT22;8241;48.786;9.250;2022-09-09T04:47:48;16.30;99.90
16267;DHT22;8241;48.786;9.250;2022-09-09T04:50:24;16.50;99.90
16267;DHT22;8241;48.786;9.250;2022-09-09T04:56:12;16.80;99.90
16267;DHT22;8241;48.786;9.250;2022-09-09T04:59:05;17.00;99.90
16267;DHT22;8241;48.786;9.250;2022-09-09T05:01:44;17.10;99.90
16267;DHT22;8241;48.786;9.250;2022-09-09T05:07:10;16.90;99.90
16267;DHT22;8241;48.786;9.250;2022-09-09T05:12:52;16.50;99.90
16267;DHT22;8241;48.786;9.250;2022-09-09T05:15:32;16.40;99.90
16267;DHT22;8241;48.786;9.250;2022-09-09T05:18:00;16.40;99.90
16267;DHT22;8241;48.786;9.250;2022-09-09T05:20:31;16.40;99.90
16267;DHT22;8241;48.786;9.250;2022-09-09T05:23:00;16.40;99.90
16267;DHT22;8241;48.786;9.250;2022-09-09T05:25:31;16.40;99.90
16267;DHT22;8241;48.786;9.250;2022-09-09T05:28:02;16.50;99.90
16267;DHT22;8241;48.786;9.250;2022-09-09T05:30:30;16.60;99.90
16267;DHT22;8241;48.786;9.250;2022-09-09T05:33:02;16.70;99.90
16267;DHT22;8241;48.786;9.250;2022-09-09T05:35:31;16.70;99.90
16267;DHT22;8241;48.786;9.250;2022-09-09T05:38:05;16.70;99.90
16267;DHT22;8241;48.786;9.250;2022-09-09T05:40:33;16.70;99.90
16267;DHT22;8241;48.786;9.250;2022-09-09T05:45:58;16.80;99.90
16267;DHT22;8241;48.786;9.250;2022-09-09T05:48:27;16.80;99.90
16267;DHT22;8241;48.786;9.250;2022-09-09T05:50:54;16.90;99.90
16267;DHT22;8241;48.786;9.250;2022-09-09T05:58:40;17.00;99.90
16267;DHT22;8241;48.786;9.250;2022-09-09T06:01:11;17.10;99.90
16267;DHT22;8241;48.786;9.250;2022-09-09T06:03:48;17.00;99.90
16267;DHT22;8241;48.786;9.250;2022-09-09T06:12:04;17.10;99.90
16267;DHT22;8241;48.786;9.250;2022-09-09T06:14:39;17.20;99.90
16267;DHT22;8241;48.786;9.250;2022-09-09T06:17:20;17.20;99.90
16267;DHT22;8241;48.786;9.250;2022-09-09T06:31:46;17.70;99.60
16267;DHT22;8241;48.786;9.250;2022-09-09T06:34:37;17.80;99.40
16267;DHT22;8241;48.786;9.250;2022-09-09T06:37:14;17.80;99.50
16267;DHT22;8241;48.786;9.250;2022-09-09T06:39:50;17.90;99.30
16267;DHT22;8241;48.786;9.250;2022-09-09T06:42:25;17.90;99.20
16267;DHT22;8241;48.786;9.250;2022-09-09T06:53:16;18.10;99.30
16267;DHT22;8241;48.786;9.250;2022-09-09T06:55:52;18.20;99.20
16267;DHT22;8241;48.786;9.250;2022-09-09T07:16:04;18.50;98.80
16267;DHT22;8241;48.786;9.250;2022-09-09T07:18:43;18.60;98.80
16267;DHT22;8241;48.786;9.250;2022-09-09T07:21:11;18.70;98.90
16267;DHT22;8241;48.786;9.250;2022-09-09T07:23:53;18.90;98.60
16267;DHT22;8241;48.786;9.250;2022-09-09T07:26:29;18.90;98.50
16267;DHT22;8241;48.786;9.250;2022-09-09T07:29:00;18.90;98.50
16267;DHT22;8241;48.786;9.250;2022-09-09T07:31:41;19.10;98.40
16267;DHT22;8241;48.786;9.250;2022-09-09T07:34:12;19.10;98.30
16267;DHT22;8241;48.786;9.250;2022-09-09T07:36:46;19.20;98.40
16267;DHT22;8241;48.786;9.250;2022-09-09T07:39:25;19.20;98.30
16267;DHT22;8241;48.786;9.250;2022-09-09T07:45:28;19.20;98.30
16267;DHT22;8241;48.786;9.250;2022-09-09T07:48:09;19.10;98.40
16267;DHT22;8241;48.786;9.250;2022-09-09T07:50:42;19.30;98.40
16267;DHT22;8241;48.786;9.250;2022-09-09T07:53:22;19.60;98.10
16267;DHT22;8241;48.786;9.250;2022-09-09T07:55:54;19.90;97.50
16267;DHT22;8241;48.786;9.250;2022-09-09T08:01:18;20.00;97.70
16267;DHT22;8241;48.786;9.250;2022-09-09T08:03:51;19.90;97.40
16267;DHT22;8241;48.786;9.250;2022-09-09T08:06:18;19.90;97.80
16267;DHT22;8241;48.786;9.250;2022-09-09T08:08:49;20.10;97.50
16267;DHT22;8241;48.786;9.250;2022-09-09T08:11:28;20.40;97.20
16267;DHT22;8241;48.786;9.250;2022-09-09T08:14:03;20.60;96.60
16267;DHT22;8241;48.786;9.250;2022-09-09T08:16:31;20.90;96.40
16267;DHT22;8241;48.786;9.250;2022-09-09T08:19:03;21.00;96.10
16267;DHT22;8241;48.786;9.250;2022-09-09T08:21:47;20.90;96.10
16267;DHT22;8241;48.786;9.250;2022-09-09T08:26:49;21.10;96.50
16267;DHT22;8241;48.786;9.250;2022-09-09T08:29:29;21.50;95.60
16267;DHT22;8241;48.786;9.250;2022-09-09T08:31:58;21.90;95.20
16267;DHT22;8241;48.786;9.250;2022-09-09T08:34:29;22.50;94.30
16267;DHT22;8241;48.786;9.250;2022-09-09T08:37:03;22.90;93.70
16267;DHT22;8241;48.786;9.250;2022-09-09T08:39:39;23.30;93.00
16267;DHT22;8241;48.786;9.250;2022-09-09T08:42:27;23.60;92.50
16267;DHT22;8241;48.786;9.250;2022-09-09T08:45:14;24.00;91.90
16267;DHT22;8241;48.786;9.250;2022-09-09T08:50:24;26.30;88.20
16267;DHT22;8241;48.786;9.250;2022-09-09T08:53:01;27.60;85.30
16267;DHT22;8241;48.786;9.250;2022-09-09T08:55:35;28.80;82.50
16267;DHT22;8241;48.786;9.250;2022-09-09T08:58:08;28.30;82.40
16267;DHT22;8241;48.786;9.250;2022-09-09T09:00:41;28.70;80.90
16267;DHT22;8241;48.786;9.250;2022-09-09T09:03:14;28.60;80.00
16267;DHT22;8241;48.786;9.250;2022-09-09T09:05:46;27.20;82.40
16267;DHT22;8241;48.786;9.250;2022-09-09T09:08:25;25.90;83.60
16267;DHT22;8241;48.786;9.250;2022-09-09T09:10:57;24.80;86.80
16267;DHT22;8241;48.786;9.250;2022-09-09T09:13:34;25.30;87.50
16267;DHT22;8241;48.786;9.250;2022-09-09T09:16:04;28.30;81.90
16267;DHT22;8241;48.786;9.250;2022-09-09T09:18:34;30.10;77.20
16267;DHT22;8241;48.786;9.250;2022-09-09T09:23:45;27.80;76.70
16267;DHT22;8241;48.786;9.250;2022-09-09T09:26:16;26.10;80.00
16267;DHT22;8241;48.786;9.250;2022-09-09T09:28:50;25.40;83.60
16267;DHT22;8241;48.786;9.250;2022-09-09T09:31:22;25.70;83.60
16267;DHT22;8241;48.786;9.250;2022-09-09T09:37:34;24.00;87.70
16267;DHT22;8241;48.786;9.250;2022-09-09T09:52:12;26.60;83.20
16267;DHT22;8241;48.786;9.250;2022-09-09T09:54:55;29.80;78.60
16267;DHT22;8241;48.786;9.250;2022-09-09T09:57:25;31.70;76.00
16267;DHT22;8241;48.786;9.250;2022-09-09T10:00:04;33.00;70.60
16267;DHT22;8241;48.786;9.250;2022-09-09T10:02:47;34.10;70.70
16267;DHT22;8241;48.786;9.250;2022-09-09T10:05:21;34.40;69.60
16267;DHT22;8241;48.786;9.250;2022-09-09T10:08:05;34.00;70.00
16267;DHT22;8241;48.786;9.250;2022-09-09T10:10:42;33.70;69.50
16267;DHT22;8241;48.786;9.250;2022-09-09T10:13:15;33.90;70.90
16267;DHT22;8241;48.786;9.250;2022-09-09T10:15:48;35.00;67.20
16267;DHT22;8241;48.786;9.250;2022-09-09T10:18:23;34.90;66.80
16267;DHT22;8241;48.786;9.250;2022-09-09T10:20:54;35.70;66.90
16267;DHT22;8241;48.786;9.250;2022-09-09T10:23:29;37.40;65.40
16267;DHT22;8241;48.786;9.250;2022-09-09T10:26:16;38.30;62.10
16267;DHT22;8241;48.786;9.250;2022-09-09T10:31:40;36.80;63.70
16267;DHT22;8241;48.786;9.250;2022-09-09T10:34:33;35.90;66.20
16267;DHT22;8241;48.786;9.250;2022-09-09T10:37:07;36.80;64.30
16267;DHT22;8241;48.786;9.250;2022-09-09T10:39:44;34.90;64.80
16267;DHT22;8241;48.786;9.250;2022-09-09T10:42:12;35.40;63.40
16267;DHT22;8241;48.786;9.250;2022-09-09T10:44:50;35.70;64.40
16267;DHT22;8241;48.786;9.250;2022-09-09T10:47:26;36.10;63.40
16267;DHT22;8241;48.786;9.250;2022-09-09T10:50:16;36.20;63.40
16267;DHT22;8241;48.786;9.250;2022-09-09T10:52:47;37.40;62.70
16267;DHT22;8241;48.786;9.250;2022-09-09T10:55:31;37.20;61.80
16267;DHT22;8241;48.786;9.250;2022-09-09T10:58:02;36.90;62.70
16267;DHT22;8241;48.786;9.250;2022-09-09T11:00:31;34.60;63.10
16267;DHT22;8241;48.786;9.250;2022-09-09T11:03:04;31.50;68.70
16267;DHT22;8241;48.786;9.250;2022-09-09T11:05:40;30.30;73.60
16267;DHT22;8241;48.786;9.250;2022-09-09T11:08:09;29.80;73.60
16267;DHT22;8241;48.786;9.250;2022-09-09T11:10:39;31.20;73.30
16267;DHT22;8241;48.786;9.250;2022-09-09T11:13:10;34.10;69.40
16267;DHT22;8241;48.786;9.250;2022-09-09T11:15:41;35.10;65.10
16267;DHT22;8241;48.786;9.250;2022-09-09T11:30:18;32.00;67.10
16267;DHT22;8241;48.786;9.250;2022-09-09T11:36:31;26.70;75.20
16267;DHT22;8241;48.786;9.250;2022-09-09T11:39:27;25.10;74.40
16267;DHT22;8241;48.786;9.250;2022-09-09T11:42:06;24.10;77.50
16267;DHT22;8241;48.786;9.250;2022-09-09T11:44:34;23.90;78.80
16267;DHT22;8241;48.786;9.250;2022-09-09T11:47:19;23.80;80.20
16267;DHT22;8241;48.786;9.250;2022-09-09T11:49:53;23.70;82.50
16267;DHT22;8241;48.786;9.250;2022-09-09T11:56:09;23.20;83.20
16267;DHT22;8241;48.786;9.250;2022-09-09T11:58:41;23.40;82.70
16267;DHT22;8241;48.786;9.250;2022-09-09T12:01:15;23.50;81.90
16267;DHT22;8241;48.786;9.250;2022-09-09T12:03:49;23.50;81.70
16267;DHT22;8241;48.786;9.250;2022-09-09T12:06:28;23.70;81.90
16267;DHT22;8241;48.786;9.250;2022-09-09T12:09:07;23.90;80.30
16267;DHT22;8241;48.786;9.250;2022-09-09T12:11:39;24.20;80.40
16267;DHT22;8241;48.786;9.250;2022-09-09T12:14:22;25.70;77.20
16267;DHT22;8241;48.786;9.250;2022-09-09T12:16:50;27.40;72.70
16267;DHT22;8241;48.786;9.250;2022-09-09T12:19:29;29.30;69.20
16267;DHT22;8241;48.786;9.250;2022-09-09T12:22:06;30.00;66.00
16267;DHT22;8241;48.786;9.250;2022-09-09T12:24:43;28.50;68.00
16267;DHT22;8241;48.786;9.250;2022-09-09T12:27:18;27.40;70.20
16267;DHT22;8241;48.786;9.250;2022-09-09T12:29:56;26.80;71.20
16267;DHT22;8241;48.786;9.250;2022-09-09T12:32:26;27.90;69.90
16267;DHT22;8241;48.786;9.250;2022-09-09T12:35:02;29.60;66.30
16267;DHT22;8241;48.786;9.250;2022-09-09T12:37:49;31.00;63.70
16267;DHT22;8241;48.786;9.250;2022-09-09T12:40:23;33.10;60.20
16267;DHT22;8241;48.786;9.250;2022-09-09T12:42:51;34.50;58.30
16267;DHT22;8241;48.786;9.250;2022-09-09T12:45:20;35.00;57.50
16267;DHT22;8241;48.786;9.250;2022-09-09T12:47:53;35.10;56.80
16267;DHT22;8241;48.786;9.250;2022-09-09T12:50:35;34.60;57.20
16267;DHT22;8241;48.786;9.250;2022-09-09T12:53:12;32.60;57.70
16267;DHT22;8241;48.786;9.250;2022-09-09T12:55:50;31.60;59.40
16267;DHT22;8241;48.786;9.250;2022-09-09T12:58:20;30.10;62.00
16267;DHT22;8241;48.786;9.250;2022-09-09T13:00:56;29.20;65.20
16267;DHT22;8241;48.786;9.250;2022-09-09T13:03:31;28.00;67.80
16267;DHT22;8241;48.786;9.250;2022-09-09T13:06:13;27.80;68.90
16267;DHT22;8241;48.786;9.250;2022-09-09T13:08:44;28.70;68.70
16267;DHT22;8241;48.786;9.250;2022-09-09T13:11:14;28.70;67.50
16267;DHT22;8241;48.786;9.250;2022-09-09T13:14:05;28.80;67.50
16267;DHT22;8241;48.786;9.250;2022-09-09T13:16:36;27.70;68.80
16267;DHT22;8241;48.786;9.250;2022-09-09T13:19:08;27.00;71.80
16267;DHT22;8241;48.786;9.250;2022-09-09T13:21:40;26.20;72.50
16267;DHT22;8241;48.786;9.250;2022-09-09T13:24:28;25.70;73.10
16267;DHT22;8241;48.786;9.250;2022-09-09T13:27:00;25.10;74.30
16267;DHT22;8241;48.786;9.250;2022-09-09T13:29:51;25.20;74.90
16267;DHT22;8241;48.786;9.250;2022-09-09T13:32:35;25.10;75.10
16267;DHT22;8241;48.786;9.250;2022-09-09T13:35:03;25.30;74.60
16267;DHT22;8241;48.786;9.250;2022-09-09T13:37:48;26.30;73.40
16267;DHT22;8241;48.786;9.250;2022-09-09T13:40:18;27.10;70.90
16267;DHT22;8241;48.786;9.250;2022-09-09T13:42:46;27.50;70.00
16267;DHT22;8241;48.786;9.250;2022-09-09T13:45:40;28.40;68.60
16267;DHT22;8241;48.786;9.250;2022-09-09T13:48:10;28.60;67.50
16267;DHT22;8241;48.786;9.250;2022-09-09T13:50:55;28.40;66.90
16267;DHT22;8241;48.786;9.250;2022-09-09T13:53:37;27.40;68.10
16267;DHT22;8241;48.786;9.250;2022-09-09T13:56:20;25.80;70.30
16267;DHT22;8241;48.786;9.250;2022-09-09T13:58:51;25.00;72.60
16267;DHT22;8241;48.786;9.250;2022-09-09T14:01:28;24.50;74.00
16267;DHT22;8241;48.786;9.250;2022-09-09T14:03:58;24.30;74.80
16267;DHT22;8241;48.786;9.250;2022-09-09T14:06:30;24.40;75.50
16267;DHT22;8241;48.786;9.250;2022-09-09T14:09:01;24.90;75.10
16267;DHT22;8241;48.786;9.250;2022-09-09T14:11:28;25.70;72.80
16267;DHT22;8241;48.786;9.250;2022-09-09T14:13:57;26.30;71.70
16267;DHT22;8241;48.786;9.250;2022-09-09T14:16:38;26.80;71.90
16267;DHT22;8241;48.786;9.250;2022-09-09T14:19:09;27.10;70.90
16267;DHT22;8241;48.786;9.250;2022-09-09T14:21:38;27.20;70.20
16267;DHT22;8241;48.786;9.250;2022-09-09T14:27:19;26.20;71.30
16267;DHT22;8241;48.786;9.250;2022-09-09T14:30:05;26.00;71.90
16267;DHT22;8241;48.786;9.250;2022-09-09T14:32:42;25.30;72.70
16267;DHT22;8241;48.786;9.250;2022-09-09T14:35:15;25.10;73.40
16267;DHT22;8241;48.786;9.250;2022-09-09T14:40:47;24.20;75.70
16267;DHT22;8241;48.786;9.250;2022-09-09T14:43:35;24.00;75.50
16267;DHT22;8241;48.786;9.250;2022-09-09T14:46:15;24.50;74.40
16267;DHT22;8241;48.786;9.250;2022-09-09T14:49:00;24.60;73.90
16267;DHT22;8241;48.786;9.250;2022-09-09T14:51:31;24.30;74.10
16267;DHT22;8241;48.786;9.250;2022-09-09T14:54:16;24.00;74.60
16267;DHT22;8241;48.786;9.250;2022-09-09T14:56:55;23.90;74.60
16267;DHT22;8241;48.786;9.250;2022-09-09T14:59:47;23.50;76.00
16267;DHT22;8241;48.786;9.250;2022-09-09T15:02:19;23.60;77.10
16267;DHT22;8241;48.786;9.250;2022-09-09T15:04:49;24.00;76.30
16267;DHT22;8241;48.786;9.250;2022-09-09T15:07:16;24.30;75.10
16267;DHT22;8241;48.786;9.250;2022-09-09T15:09:51;24.30;74.80
16267;DHT22;8241;48.786;9.250;2022-09-09T15:12:19;24.20;74.90
16267;DHT22;8241;48.786;9.250;2022-09-09T15:15:02;24.50;74.00
16267;DHT22;8241;48.786;9.250;2022-09-09T15:17:41;24.80;73.10
16267;DHT22;8241;48.786;9.250;2022-09-09T15:20:09;24.90;72.90
16267;DHT22;8241;48.786;9.250;2022-09-09T15:22:36;24.80;72.60
16267;DHT22;8241;48.786;9.250;2022-09-09T15:25:36;24.60;72.90
16267;DHT22;8241;48.786;9.250;2022-09-09T15:28:03;24.40;72.90
16267;DHT22;8241;48.786;9.250;2022-09-09T15:30:31;24.30;73.90
16267;DHT22;8241;48.786;9.250;2022-09-09T15:32:58;24.30;74.50
16267;DHT22;8241;48.786;9.250;2022-09-09T15:35:25;24.20;74.50
16267;DHT22;8241;48.786;9.250;2022-09-09T15:37:53;24.10;74.80
16267;DHT22;8241;48.786;9.250;2022-09-09T15:40:26;24.00;75.00
16267;DHT22;8241;48.786;9.250;2022-09-09T15:42:57;24.10;75.00
16267;DHT22;8241;48.786;9.250;2022-09-09T15:48:37;23.90;75.90
16267;DHT22;8241;48.786;9.250;2022-09-09T15:51:12;23.90;76.00
16267;DHT22;8241;48.786;9.250;2022-09-09T15:53:40;23.90;75.80
16267;DHT22;8241;48.786;9.250;2022-09-09T15:56:18;23.90;76.00
16267;DHT22;8241;48.786;9.250;2022-09-09T15:59:13;23.80;75.90
16267;DHT22;8241;48.786;9.250;2022-09-09T16:01:42;23.50;76.80
16267;DHT22;8241;48.786;9.250;2022-09-09T16:04:19;23.40;77.00
16267;DHT22;8241;48.786;9.250;2022-09-09T16:06:58;23.40;77.50
16267;DHT22;8241;48.786;9.250;2022-09-09T16:09:26;23.30;77.20
16267;DHT22;8241;48.786;9.250;2022-09-09T16:11:56;23.10;77.20
16267;DHT22;8241;48.786;9.250;2022-09-09T16:14:28;22.90;77.60
16267;DHT22;8241;48.786;9.250;2022-09-09T16:17:09;23.00;77.60
16267;DHT22;8241;48.786;9.250;2022-09-09T16:20:04;23.10;77.70
16267;DHT22;8241;48.786;9.250;2022-09-09T16:22:34;23.20;76.70
16267;DHT22;8241;48.786;9.250;2022-09-09T16:25:16;23.20;77.10
16267;DHT22;8241;48.786;9.250;2022-09-09T16:27:44;23.20;76.90
16267;DHT22;8241;48.786;9.250;2022-09-09T16:30:11;23.20;76.50
16267;DHT22;8241;48.786;9.250;2022-09-09T16:32:38;23.00;77.00
16267;DHT22;8241;48.786;9.250;2022-09-09T16:35:08;23.00;77.50
16267;DHT22;8241;48.786;9.250;2022-09-09T16:37:46;23.00;77.60
16267;DHT22;8241;48.786;9.250;2022-09-09T16:40:14;23.00;78.90
16267;DHT22;8241;48.786;9.250;2022-09-09T16:43:18;23.00;78.60
16267;DHT22;8241;48.786;9.250;2022-09-09T16:46:00;22.90;79.60
16267;DHT22;8241;48.786;9.250;2022-09-09T16:48:30;22.80;81.00
16267;DHT22;8241;48.786;9.250;2022-09-09T16:51:06;22.60;81.90
16267;DHT22;8241;48.786;9.250;2022-09-09T16:53:47;22.50;82.40
16267;DHT22;8241;48.786;9.250;2022-09-09T16:56:16;22.20;82.80
16267;DHT22;8241;48.786;9.250;2022-09-09T16:58:51;22.00;83.80
16267;DHT22;8241;48.786;9.250;2022-09-09T17:01:35;22.00;84.10
16267;DHT22;8241;48.786;9.250;2022-09-09T17:04:18;21.90;81.70
16267;DHT22;8241;48.786;9.250;2022-09-09T17:06:54;21.70;81.20
16267;DHT22;8241;48.786;9.250;2022-09-09T17:09:52;21.70;81.30
16267;DHT22;8241;48.786;9.250;2022-09-09T17:12:19;21.70;82.10
16267;DHT22;8241;48.786;9.250;2022-09-09T17:14:47;21.60;81.70
16267;DHT22;8241;48.786;9.250;2022-09-09T17:17:18;21.60;82.20
16267;DHT22;8241;48.786;9.250;2022-09-09T17:19:47;21.50;81.90
16267;DHT22;8241;48.786;9.250;2022-09-09T17:22:17;21.50;83.00
16267;DHT22;8241;48.786;9.250;2022-09-09T17:24:45;21.50;82.70
16267;DHT22;8241;48.786;9.250;2022-09-09T17:27:12;21.50;83.30
16267;DHT22;8241;48.786;9.250;2022-09-09T17:29:39;21.40;83.70
16267;DHT22;8241;48.786;9.250;2022-09-09T17:32:06;21.40;83.90
16267;DHT22;8241;48.786;9.250;2022-09-09T17:34:33;21.30;84.50
16267;DHT22;8241;48.786;9.250;2022-09-09T17:37:00;21.20;84.80
16267;DHT22;8241;48.786;9.250;2022-09-09T17:39:29;21.10;85.60
16267;DHT22;8241;48.786;9.250;2022-09-09T17:41:56;21.00;86.20
16267;DHT22;8241;48.786;9.250;2022-09-09T17:44:23;21.10;86.30
16267;DHT22;8241;48.786;9.250;2022-09-09T17:46:50;21.00;86.60
16267;DHT22;8241;48.786;9.250;2022-09-09T17:49:17;21.10;86.70
16267;DHT22;8241;48.786;9.250;2022-09-09T17:51:44;21.10;86.60
16267;DHT22;8241;48.786;9.250;2022-09-09T17:54:13;21.10;87.10
16267;DHT22;8241;48.786;9.250;2022-09-09T17:56:42;21.10;87.20
16267;DHT22;8241;48.786;9.250;2022-09-09T17:59:11;21.10;87.40
16267;DHT22;8241;48.786;9.250;2022-09-09T18:01:41;21.10;87.80
16267;DHT22;8241;48.786;9.250;2022-09-09T18:04:12;21.10;87.80
16267;DHT22;8241;48.786;9.250;2022-09-09T18:06:43;20.90;89.10
16267;DHT22;8241;48.786;9.250;2022-09-09T18:09:14;20.90;89.20
16267;DHT22;8241;48.786;9.250;2022-09-09T18:11:45;20.70;89.90
16267;DHT22;8241;48.786;9.250;2022-09-09T18:14:16;20.70;90.00
16267;DHT22;8241;48.786;9.250;2022-09-09T18:16:47;20.70;90.20
16267;DHT22;8241;48.786;9.250;2022-09-09T18:19:17;20.70;90.20
16267;DHT22;8241;48.786;9.250;2022-09-09T18:21:46;20.60;90.40
16267;DHT22;8241;48.786;9.250;2022-09-09T18:24:22;20.30;90.50
16267;DHT22;8241;48.786;9.250;2022-09-09T18:26:51;20.30;90.60
16267;DHT22;8241;48.786;9.250;2022-09-09T18:29:20;20.10;90.80
16267;DHT22;8241;48.786;9.250;2022-09-09T18:31:52;20.00;91.00
16267;DHT22;8241;48.786;9.250;2022-09-09T18:34:22;19.90;91.00
16267;DHT22;8241;48.786;9.250;2022-09-09T18:37:10;19.90;91.00
16267;DHT22;8241;48.786;9.250;2022-09-09T18:39:37;19.80;91.10
16267;DHT22;8241;48.786;9.250;2022-09-09T18:42:19;19.80;91.10
16267;DHT22;8241;48.786;9.250;2022-09-09T18:45:00;19.70;91.10
16267;DHT22;8241;48.786;9.250;2022-09-09T18:47:27;19.70;91.40
16267;DHT22;8241;48.786;9.250;2022-09-09T18:49:53;19.70;91.50
16267;DHT22;8241;48.786;9.250;2022-09-09T18:52:22;19.70;91.50
16267;DHT22;8241;48.786;9.250;2022-09-09T18:54:50;19.60;91.40
16267;DHT22;8241;48.786;9.250;2022-09-09T18:57:19;19.60;91.70
16267;DHT22;8241;48.786;9.250;2022-09-09T18:59:46;19.70;91.50
16267;DHT22;8241;48.786;9.250;2022-09-09T19:02:19;19.80;91.40
16267;DHT22;8241;48.786;9.250;2022-09-09T19:04:47;19.90;91.40
16267;DHT22;8241;48.786;9.250;2022-09-09T19:07:16;19.90;91.40
16267;DHT22;8241;48.786;9.250;2022-09-09T19:09:43;19.90;91.50